sensor_id;sensor_type;location;lat;lon;timestamp;pressure;altitude;pressure_sealevel;temperature;humidity
40708;BME280;26392;42.696;23.350;2023-01-16T00:00:55;95270.81;;;1.44;100.00
40708;BME280;26392;42.696;23.350;2023-01-16T00:03:21;95266.91;;;1.47;100.00
40708;BME280;26392;42.696;23.350;2023-01-16T00:05:47;95259.44;;;1.42;100.00
40708;BME280;26392;42.696;23.350;2023-01-16T00:08:13;95246.41;;;1.39;100.00
40708;BME280;26392;42.696;23.350;2023-01-16T00:10:38;95260.06;;;1.44;100.00
40708;BME280;26392;42.696;23.350;2023-01-16T00:13:05;95255.53;;;1.45;100.00
40708;BME280;26392;42.696;23.350;2023-01-16T00:15:30;95257.56;;;1.43;100.00
40708;BME280;26392;42.696;23.350;2023-01-16T00:17:56;95247.47;;;1.45;100.00
40708;BME280;26392;42.696;23.350;2023-01-16T00:20:22;95256.75;;;1.42;100.00
40708;BME280;26392;42.696;23.350;2023-01-16T00:22:47;95248.75;;;1.49;100.00
40708;BME280;26392;42.696;23.350;2023-01-16T00:25:13;95246.03;;;1.42;100.00
40708;BME280;26392;42.696;23.350;2023-01-16T00:27:38;95241.06;;;1.39;100.00
40708;BME280;26392;42.696;23.350;2023-01-16T00:30:05;95239.66;;;1.43;100.00
40708;BME280;26392;42.696;23.350;2023-01-16T00:32:31;95232.81;;;1.41;100.00
40708;BME280;26392;42.696;23.350;2023-01-16T00:34:56;95232.41;;;1.44;100.00
40708;BME280;26392;42.696;23.350;2023-01-16T00:37:22;95227.84;;;1.38;100.00
40708;BME280;26392;42.696;23.350;2023-01-16T00:39:47;95221.22;;;1.33;100.00
40708;BME280;26392;42.696;23.350;2023-01-16T00:42:13;95224.31;;;1.37;100.00
40708;BME280;26392;42.696;23.350;2023-01-16T00:44:39;95231.94;;;1.33;100.00
40708;BME280;26392;42.696;23.350;2023-01-16T00:47:04;95217.88;;;1.31;100.00
40708;BME280;26392;42.696;23.350;2023-01-16T00:49:30;95217.88;;;1.31;100.00
40708;BME280;26392;42.696;23.350;2023-01-16T00:51:55;95222.44;;;1.31;100.00
40708;BME280;26392;42.696;23.350;2023-01-16T00:54:21;95223.88;;;1.27;100.00
40708;BME280;26392;42.696;23.350;2023-01-16T00:56:46;95217.69;;;1.26;100.00
40708;BME280;26392;42.696;23.350;2023-01-16T00:59:12;95212.91;;;1.28;100.00
40708;BME280;26392;42.696;23.350;2023-01-16T01:01:38;95207.94;;;1.25;100.00
40708;BME280;26392;42.696;23.350;2023-01-16T01:04:04;95205.50;;;1.24;100.00
40708;BME280;26392;42.696;23.350;2023-01-16T01:06:30;95205.50;;;1.24;100.00
40708;BME280;26392;42.696;23.350;2023-01-16T01:08:56;95209.81;;;1.25;100.00
40708;BME280;26392;42.696;23.350;2023-01-16T01:11:22;95211.44;;;1.19;100.00
40708;BME280;26392;42.696;23.350;2023-01-16T01:13:49;95213.31;;;1.25;100.00
40708;BME280;26392;42.696;23.350;2023-01-16T01:16:14;95209.00;;;1.24;100.00
40708;BME280;26392;42.696;23.350;2023-01-16T01:18:40;95218.91;;;1.24;100.00
40708;BME280;26392;42.696;23.350;2023-01-16T01:21:06;95212.91;;;1.22;100.00
40708;BME280;26392;42.696;23.350;2023-01-16T01:23:31;95210.38;;;1.14;100.00
40708;BME280;26392;42.696;23.350;2023-01-16T01:25:57;95199.66;;;1.14;100.00
40708;BME280;26392;42.696;23.350;2023-01-16T01:28:23;95196.31;;;1.11;100.00
40708;BME280;26392;42.696;23.350;2023-01-16T01:30:48;95197.59;;;1.16;100.00
40708;BME280;26392;42.696;23.350;2023-01-16T01:33:14;95197.78;;;1.14;100.00
40708;BME280;26392;42.696;23.350;2023-01-16T01:35:39;95191.84;;;1.19;100.00
40708;BME280;26392;42.696;23.350;2023-01-16T01:38:05;95190.38;;;1.23;100.00
40708;BME280;26392;42.696;23.350;2023-01-16T01:40:32;95186.69;;;1.24;100.00
40708;BME280;26392;42.696;23.350;2023-01-16T01:42:58;95178.59;;;1.17;100.00
40708;BME280;26392;42.696;23.350;2023-01-16T01:45:29;95168.47;;;1.13;100.00
40708;BME280;26392;42.696;23.350;2023-01-16T01:51:04;95177.72;;;1.03;100.00
40708;BME280;26392;42.696;23.350;2023-01-16T01:53:50;95170.31;;;1.05;100.00
40708;BME280;26392;42.696;23.350;2023-01-16T01:56:42;95176.88;;;1.03;100.00
40708;BME280;26392;42.696;23.350;2023-01-16T01:59:16;95176.88;;;1.03;100.00
40708;BME280;26392;42.696;23.350;2023-01-16T02:01:43;95170.88;;;1.01;100.00
40708;BME280;26392;42.696;23.350;2023-01-16T02:04:16;95165.34;;;1.02;100.00
40708;BME280;26392;42.696;23.350;2023-01-16T02:06:51;95164.28;;;1.03;100.00
40708;BME280;26392;42.696;23.350;2023-01-16T02:09:18;95161.22;;;1.06;100.00
40708;BME280;26392;42.696;23.350;2023-01-16T02:11:55;95164.28;;;1.03;100.00
40708;BME280;26392;42.696;23.350;2023-01-16T02:14:22;95163.28;;;1.04;100.00
40708;BME280;26392;42.696;23.350;2023-01-16T02:16:53;95155.19;;;0.98;100.00
40708;BME280;26392;42.696;23.350;2023-01-16T02:41:53;95139.72;;;1.00;100.00
40708;BME280;26392;42.696;23.350;2023-01-16T02:45:03;95134.78;;;1.03;100.00
40708;BME280;26392;42.696;23.350;2023-01-16T02:47:45;95137.47;;;1.03;100.00
40708;BME280;26392;42.696;23.350;2023-01-16T02:50:40;95138.72;;;1.07;100.00
40708;BME280;26392;42.696;23.350;2023-01-16T02:53:19;95139.78;;;1.13;100.00
40708;BME280;26392;42.696;23.350;2023-01-16T02:56:18;95130.22;;;0.97;100.00
40708;BME280;26392;42.696;23.350;2023-01-16T02:58:46;95123.66;;;1.06;100.00
40708;BME280;26392;42.696;23.350;2023-01-16T03:01:12;95117.03;;;0.96;100.00
40708;BME280;26392;42.696;23.350;2023-01-16T03:04:04;95119.00;;;0.74;100.00
40708;BME280;26392;42.696;23.350;2023-01-16T03:06:50;95110.72;;;0.75;100.00
40708;BME280;26392;42.696;23.350;2023-01-16T03:09:45;95119.16;;;0.72;100.00
40708;BME280;26392;42.696;23.350;2023-01-16T03:12:25;95121.03;;;0.72;100.00
40708;BME280;26392;42.696;23.350;2023-01-16T03:15:08;95110.53;;;0.77;100.00
40708;BME280;26392;42.696;23.350;2023-01-16T03:26:16;95095.84;;;0.66;100.00
40708;BME280;26392;42.696;23.350;2023-01-16T03:28:58;95088.03;;;0.71;100.00
40708;BME280;26392;42.696;23.350;2023-01-16T03:31:51;95087.84;;;0.79;100.00
40708;BME280;26392;42.696;23.350;2023-01-16T03:39:30;95072.09;;;0.63;100.00
40708;BME280;26392;42.696;23.350;2023-01-16T03:42:00;95067.16;;;0.60;100.00
40708;BME280;26392;42.696;23.350;2023-01-16T03:44:36;95057.81;;;0.49;100.00
40708;BME280;26392;42.696;23.350;2023-01-16T03:47:06;95053.66;;;0.47;100.00
40708;BME280;26392;42.696;23.350;2023-01-16T03:49:38;95053.66;;;0.47;100.00
40708;BME280;26392;42.696;23.350;2023-01-16T03:52:10;95048.06;;;0.35;100.00
40708;BME280;26392;42.696;23.350;2023-01-16T03:59:44;95041.72;;;0.49;100.00
40708;BME280;26392;42.696;23.350;2023-01-16T04:02:41;95034.50;;;0.43;100.00
40708;BME280;26392;42.696;23.350;2023-01-16T04:07:54;95044.56;;;0.41;100.00
40708;BME280;26392;42.696;23.350;2023-01-16T04:10:24;95051.63;;;0.49;100.00
40708;BME280;26392;42.696;23.350;2023-01-16T04:12:55;95047.97;;;0.56;100.00
40708;BME280;26392;42.696;23.350;2023-01-16T04:15:24;95050.16;;;0.46;100.00
40708;BME280;26392;42.696;23.350;2023-01-16T04:17:51;95047.06;;;0.42;100.00
40708;BME280;26392;42.696;23.350;2023-01-16T04:20:17;95032.41;;;0.38;100.00
40708;BME280;26392;42.696;23.350;2023-01-16T04:22:48;95039.06;;;0.49;100.00
40708;BME280;26392;42.696;23.350;2023-01-16T04:25:14;95047.06;;;0.42;100.00
40708;BME280;26392;42.696;23.350;2023-01-16T04:27:41;95044.56;;;0.41;100.00
40708;BME280;26392;42.696;23.350;2023-01-16T04:30:07;95033.38;;;0.31;100.00
40708;BME280;26392;42.696;23.350;2023-01-16T04:32:33;95032.69;;;0.15;100.00
40708;BME280;26392;42.696;23.350;2023-01-16T04:34:58;95036.00;;;0.17;100.00
40708;BME280;26392;42.696;23.350;2023-01-16T04:37:24;95023.66;;;0.23;100.00
40708;BME280;26392;42.696;23.350;2023-01-16T04:39:49;95030.31;;;0.34;100.00
40708;BME280;26392;42.696;23.350;2023-01-16T04:42:15;95026.22;;;0.38;100.00
40708;BME280;26392;42.696;23.350;2023-01-16T04:44:41;95020.69;;;0.53;100.00
40708;BME280;26392;42.696;23.350;2023-01-16T04:47:06;95020.50;;;0.54;100.00
40708;BME280;26392;42.696;23.350;2023-01-16T04:49:32;95016.41;;;0.58;100.00
40708;BME280;26392;42.696;23.350;2023-01-16T04:51:57;95024.47;;;0.65;100.00
40708;BME280;26392;42.696;23.350;2023-01-16T04:54:23;95021.75;;;0.58;100.00
40708;BME280;26392;42.696;23.350;2023-01-16T04:56:48;95018.66;;;0.61;100.00
40708;BME280;26392;42.696;23.350;2023-01-16T04:59:14;95010.03;;;0.66;100.00
40708;BME280;26392;42.696;23.350;2023-01-16T05:01:41;95015.00;;;0.69;100.00
40708;BME280;26392;42.696;23.350;2023-01-16T05:04:09;95009.63;;;0.62;100.00
40708;BME280;26392;42.696;23.350;2023-01-16T05:06:35;95016.63;;;0.63;100.00
40708;BME280;26392;42.696;23.350;2023-01-16T05:09:02;95014.97;;;0.62;100.00
40708;BME280;26392;42.696;23.350;2023-01-16T05:11:28;95020.13;;;0.64;100.00
40708;BME280;26392;42.696;23.350;2023-01-16T05:13:53;95013.75;;;0.72;100.00
40708;BME280;26392;42.696;23.350;2023-01-16T05:16:19;95014.59;;;0.72;100.00
40708;BME280;26392;42.696;23.350;2023-01-16T05:18:44;95016.22;;;0.66;100.00
40708;BME280;26392;42.696;23.350;2023-01-16T05:21:09;95000.13;;;0.66;100.00
40708;BME280;26392;42.696;23.350;2023-01-16T05:23:35;94993.59;;;0.76;100.00
40708;BME280;26392;42.696;23.350;2023-01-16T05:26:05;95001.59;;;0.69;100.00
40708;BME280;26392;42.696;23.350;2023-01-16T05:28:30;94993.13;;;0.65;100.00
40708;BME280;26392;42.696;23.350;2023-01-16T05:30:56;94999.31;;;0.73;100.00
40708;BME280;26392;42.696;23.350;2023-01-16T05:33:22;94995.34;;;0.55;100.00
40708;BME280;26392;42.696;23.350;2023-01-16T05:35:48;94990.34;;;0.39;100.00
40708;BME280;26392;42.696;23.350;2023-01-16T05:38:14;94980.00;;;0.29;100.00
40708;BME280;26392;42.696;23.350;2023-01-16T05:40:40;94979.41;;;0.34;100.00
40708;BME280;26392;42.696;23.350;2023-01-16T05:43:06;94977.38;;;0.42;100.00
40708;BME280;26392;42.696;23.350;2023-01-16T05:45:32;94976.41;;;0.63;100.00
40708;BME280;26392;42.696;23.350;2023-01-16T05:47:57;94977.69;;;0.74;100.00
40708;BME280;26392;42.696;23.350;2023-01-16T05:50:23;94974.59;;;0.84;100.00
40708;BME280;26392;42.696;23.350;2023-01-16T05:52:49;94976.28;;;1.05;100.00
40708;BME280;26392;42.696;23.350;2023-01-16T05:55:15;94982.91;;;1.16;100.00
40708;BME280;26392;42.696;23.350;2023-01-16T05:57:41;94980.25;;;1.16;100.00
40708;BME280;26392;42.696;23.350;2023-01-16T06:00:07;94981.25;;;1.08;100.00
40708;BME280;26392;42.696;23.350;2023-01-16T06:02:33;94975.69;;;1.16;100.00
40708;BME280;26392;42.696;23.350;2023-01-16T06:04:58;94974.84;;;1.09;100.00
40708;BME280;26392;42.696;23.350;2023-01-16T06:07:24;94975.06;;;1.07;100.00
40708;BME280;26392;42.696;23.350;2023-01-16T06:09:49;94963.06;;;1.03;100.00
40708;BME280;26392;42.696;23.350;2023-01-16T06:12:16;94973.63;;;1.05;100.00
40708;BME280;26392;42.696;23.350;2023-01-16T06:14:42;94959.97;;;1.06;100.00
40708;BME280;26392;42.696;23.350;2023-01-16T06:17:08;94964.75;;;1.04;100.00
40708;BME280;26392;42.696;23.350;2023-01-16T06:19:33;94968.25;;;1.11;100.00
40708;BME280;26392;42.696;23.350;2023-01-16T06:21:59;94961.44;;;1.16;100.00
40708;BME280;26392;42.696;23.350;2023-01-16T06:24:24;94958.56;;;1.10;100.00
40708;BME280;26392;42.696;23.350;2023-01-16T06:26:50;94970.13;;;1.18;100.00
40708;BME280;26392;42.696;23.350;2023-01-16T06:29:15;94969.69;;;1.34;100.00
40708;BME280;26392;42.696;23.350;2023-01-16T06:31:41;94979.44;;;1.35;100.00
40708;BME280;26392;42.696;23.350;2023-01-16T06:34:06;94981.06;;;1.43;100.00
40708;BME280;26392;42.696;23.350;2023-01-16T06:36:32;94981.28;;;1.48;100.00
40708;BME280;26392;42.696;23.350;2023-01-16T06:38:57;94991.19;;;1.61;100.00
40708;BME280;26392;42.696;23.350;2023-01-16T06:41:22;94991.16;;;1.81;100.00
40708;BME280;26392;42.696;23.350;2023-01-16T06:43:48;94993.22;;;1.92;100.00
40708;BME280;26392;42.696;23.350;2023-01-16T06:46:14;94990.13;;;1.88;100.00
40708;BME280;26392;42.696;23.350;2023-01-16T06:48:39;94984.13;;;1.99;100.00
40708;BME280;26392;42.696;23.350;2023-01-16T06:51:07;94969.88;;;1.99;100.00
40708;BME280;26392;42.696;23.350;2023-01-16T06:53:32;94967.19;;;1.79;100.00
40708;BME280;26392;42.696;23.350;2023-01-16T06:55:58;94959.16;;;1.72;100.00
40708;BME280;26392;42.696;23.350;2023-01-16T06:58:23;94955.44;;;1.80;100.00
40708;BME280;26392;42.696;23.350;2023-01-16T07:00:48;94965.72;;;2.03;100.00
40708;BME280;26392;42.696;23.350;2023-01-16T07:03:17;94969.63;;;2.14;100.00
40708;BME280;26392;42.696;23.350;2023-01-16T07:05:44;94975.34;;;2.24;100.00
40708;BME280;26392;42.696;23.350;2023-01-16T07:08:11;94964.59;;;2.31;100.00
40708;BME280;26392;42.696;23.350;2023-01-16T07:10:36;94961.22;;;2.49;100.00
40708;BME280;26392;42.696;23.350;2023-01-16T07:13:02;94963.91;;;2.49;100.00
40708;BME280;26392;42.696;23.350;2023-01-16T07:15:27;94969.44;;;2.60;100.00
40708;BME280;26392;42.696;23.350;2023-01-16T07:18:13;94953.66;;;2.71;100.00
40708;BME280;26392;42.696;23.350;2023-01-16T07:20:59;94949.47;;;2.81;100.00
40708;BME280;26392;42.696;23.350;2023-01-16T07:23:48;94968.81;;;2.97;100.00
40708;BME280;26392;42.696;23.350;2023-01-16T07:26:15;94959.50;;;2.99;100.00
40708;BME280;26392;42.696;23.350;2023-01-16T07:28:45;94952.09;;;2.95;100.00
40708;BME280;26392;42.696;23.350;2023-01-16T07:31:11;94937.88;;;3.12;100.00
40708;BME280;26392;42.696;23.350;2023-01-16T07:33:37;94934.13;;;3.13;100.00
40708;BME280;26392;42.696;23.350;2023-01-16T07:36:03;94951.41;;;2.99;100.00
40708;BME280;26392;42.696;23.350;2023-01-16T07:38:28;94945.91;;;2.87;100.00
40708;BME280;26392;42.696;23.350;2023-01-16T07:40:54;94946.28;;;2.98;100.00
40708;BME280;26392;42.696;23.350;2023-01-16T07:43:19;94940.00;;;3.04;100.00
40708;BME280;26392;42.696;23.350;2023-01-16T07:45:44;94936.28;;;3.05;100.00
40708;BME280;26392;42.696;23.350;2023-01-16T07:48:13;94923.59;;;3.12;100.00
40708;BME280;26392;42.696;23.350;2023-01-16T07:50:39;94936.13;;;3.00;100.00
40708;BME280;26392;42.696;23.350;2023-01-16T07:53:04;94930.19;;;2.84;100.00
40708;BME280;26392;42.696;23.350;2023-01-16T07:55:30;94921.81;;;2.99;100.00
40708;BME280;26392;42.696;23.350;2023-01-16T07:57:55;94918.03;;;3.07;100.00
40708;BME280;26392;42.696;23.350;2023-01-16T08:00:21;94916.75;;;2.84;100.00
40708;BME280;26392;42.696;23.350;2023-01-16T08:02:46;94900.00;;;2.82;100.00
40708;BME280;26392;42.696;23.350;2023-01-16T08:05:11;94902.09;;;2.80;100.00
40708;BME280;26392;42.696;23.350;2023-01-16T08:07:37;94895.13;;;2.98;100.00
40708;BME280;26392;42.696;23.350;2023-01-16T08:10:03;94901.44;;;3.17;100.00
40708;BME280;26392;42.696;23.350;2023-01-16T08:12:29;94910.81;;;3.32;100.00
40708;BME280;26392;42.696;23.350;2023-01-16T08:14:54;94907.22;;;3.39;100.00
40708;BME280;26392;42.696;23.350;2023-01-16T08:17:20;94901.53;;;3.53;100.00
40708;BME280;26392;42.696;23.350;2023-01-16T08:19:45;94922.13;;;3.41;100.00
40708;BME280;26392;42.696;23.350;2023-01-16T08:22:10;94922.94;;;3.42;100.00
40708;BME280;26392;42.696;23.350;2023-01-16T08:24:36;94922.09;;;3.48;100.00
40708;BME280;26392;42.696;23.350;2023-01-16T08:27:01;94923.88;;;3.54;100.00
40708;BME280;26392;42.696;23.350;2023-01-16T08:29:27;94924.63;;;3.61;100.00
40708;BME280;26392;42.696;23.350;2023-01-16T08:31:52;94912.03;;;3.62;100.00
40708;BME280;26392;42.696;23.350;2023-01-16T08:34:18;94912.81;;;3.87;100.00
40708;BME280;26392;42.696;23.350;2023-01-16T08:36:43;94903.91;;;3.87;100.00
40708;BME280;26392;42.696;23.350;2023-01-16T08:39:10;94898.09;;;3.83;100.00
40708;BME280;26392;42.696;23.350;2023-01-16T08:41:36;94890.09;;;3.95;100.00
40708;BME280;26392;42.696;23.350;2023-01-16T08:44:20;94877.59;;;4.00;100.00
40708;BME280;26392;42.696;23.350;2023-01-16T08:47:09;94865.63;;;3.96;100.00
40708;BME280;26392;42.696;23.350;2023-01-16T08:49:54;94878.47;;;4.31;100.00
40708;BME280;26392;42.696;23.350;2023-01-16T08:52:38;94870.63;;;4.30;100.00
40708;BME280;26392;42.696;23.350;2023-01-16T08:55:05;94867.63;;;4.19;100.00
40708;BME280;26392;42.696;23.350;2023-01-16T08:57:31;94872.84;;;4.51;100.00
40708;BME280;26392;42.696;23.350;2023-01-16T08:59:57;94887.81;;;4.65;100.00
40708;BME280;26392;42.696;23.350;2023-01-16T09:02:24;94883.91;;;4.61;100.00
40708;BME280;26392;42.696;23.350;2023-01-16T09:04:49;94872.66;;;4.64;100.00
40708;BME280;26392;42.696;23.350;2023-01-16T09:07:16;94863.44;;;4.84;100.00
40708;BME280;26392;42.696;23.350;2023-01-16T09:09:42;94854.31;;;4.85;100.00
40708;BME280;26392;42.696;23.350;2023-01-16T09:12:10;94852.09;;;4.93;100.00
40708;BME280;26392;42.696;23.350;2023-01-16T09:14:54;94849.03;;;4.90;100.00
40708;BME280;26392;42.696;23.350;2023-01-16T09:17:23;94852.47;;;4.97;100.00
40708;BME280;26392;42.696;23.350;2023-01-16T09:19:49;94845.31;;;5.03;100.00
40708;BME280;26392;42.696;23.350;2023-01-16T09:22:15;94843.91;;;5.12;100.00
40708;BME280;26392;42.696;23.350;2023-01-16T09:24:40;94844.75;;;5.24;100.00
40708;BME280;26392;42.696;23.350;2023-01-16T09:27:06;94824.22;;;5.47;100.00
40708;BME280;26392;42.696;23.350;2023-01-16T09:29:31;94830.78;;;5.63;100.00
40708;BME280;26392;42.696;23.350;2023-01-16T09:31:57;94814.53;;;5.86;100.00
40708;BME280;26392;42.696;23.350;2023-01-16T09:34:23;94806.78;;;6.01;100.00
40708;BME280;26392;42.696;23.350;2023-01-16T09:36:49;94800.88;;;6.04;100.00
40708;BME280;26392;42.696;23.350;2023-01-16T09:39:14;94803.44;;;6.23;100.00
40708;BME280;26392;42.696;23.350;2023-01-16T09:41:52;94802.88;;;6.09;100.00
40708;BME280;26392;42.696;23.350;2023-01-16T09:44:40;94798.78;;;6.35;100.00
40708;BME280;26392;42.696;23.350;2023-01-16T09:47:08;94808.22;;;6.33;100.00
40708;BME280;26392;42.696;23.350;2023-01-16T09:49:57;94802.47;;;6.29;100.00
40708;BME280;26392;42.696;23.350;2023-01-16T09:52:25;94796.91;;;6.36;100.00
40708;BME280;26392;42.696;23.350;2023-01-16T09:55:19;94787.78;;;6.54;100.00
40708;BME280;26392;42.696;23.350;2023-01-16T09:58:10;94788.44;;;6.61;100.00
40708;BME280;26392;42.696;23.350;2023-01-16T10:00:58;94774.00;;;6.72;100.00
40708;BME280;26392;42.696;23.350;2023-01-16T10:03:24;94770.00;;;6.91;100.00
40708;BME280;26392;42.696;23.350;2023-01-16T10:08:36;94775.44;;;6.91;100.00
40708;BME280;26392;42.696;23.350;2023-01-16T10:11:27;94769.78;;;7.10;100.00
40708;BME280;26392;42.696;23.350;2023-01-16T10:14:23;94759.84;;;6.99;100.00
40708;BME280;26392;42.696;23.350;2023-01-16T10:17:04;94746.00;;;6.95;100.00
40708;BME280;26392;42.696;23.350;2023-01-16T10:20:01;94750.09;;;6.81;100.00
40708;BME280;26392;42.696;23.350;2023-01-16T10:25:15;94732.09;;;6.91;100.00
40708;BME280;26392;42.696;23.350;2023-01-16T10:28:02;94730.72;;;7.06;100.00
40708;BME280;26392;42.696;23.350;2023-01-16T10:30:43;94729.47;;;7.13;100.00
40708;BME280;26392;42.696;23.350;2023-01-16T10:33:29;94712.09;;;6.76;100.00
40708;BME280;26392;42.696;23.350;2023-01-16T10:35:58;94709.78;;;6.67;100.00
40708;BME280;26392;42.696;23.350;2023-01-16T10:38:41;94712.72;;;7.00;100.00
40708;BME280;26392;42.696;23.350;2023-01-16T10:41:18;94709.47;;;6.98;100.00
40708;BME280;26392;42.696;23.350;2023-01-16T10:44:11;94705.34;;;7.12;100.00
40708;BME280;26392;42.696;23.350;2023-01-16T10:47:03;94716.09;;;7.07;100.00
40708;BME280;26392;42.696;23.350;2023-01-16T10:49:52;94707.28;;;7.16;100.00
40708;BME280;26392;42.696;23.350;2023-01-16T10:52:18;94694.53;;;7.12;100.00
40708;BME280;26392;42.696;23.350;2023-01-16T10:54:43;94683.09;;;7.10;100.00
40708;BME280;26392;42.696;23.350;2023-01-16T10:57:15;94668.44;;;6.38;100.00
40708;BME280;26392;42.696;23.350;2023-01-16T10:59:42;94666.22;;;5.49;100.00
40708;BME280;26392;42.696;23.350;2023-01-16T11:02:18;94642.25;;;4.89;100.00
40708;BME280;26392;42.696;23.350;2023-01-16T11:04:48;94638.59;;;4.95;100.00
40708;BME280;26392;42.696;23.350;2023-01-16T11:07:16;94628.31;;;5.21;100.00
40708;BME280;26392;42.696;23.350;2023-01-16T11:09:43;94631.84;;;5.33;100.00
40708;BME280;26392;42.696;23.350;2023-01-16T11:12:15;94635.56;;;5.44;100.00
40708;BME280;26392;42.696;23.350;2023-01-16T11:15:07;94622.03;;;5.55;100.00
40708;BME280;26392;42.696;23.350;2023-01-16T11:17:53;94607.22;;;5.58;100.00
40708;BME280;26392;42.696;23.350;2023-01-16T11:20:37;94615.06;;;5.59;100.00
40708;BME280;26392;42.696;23.350;2023-01-16T11:23:19;94614.50;;;5.57;100.00
40708;BME280;26392;42.696;23.350;2023-01-16T11:25:46;94617.53;;;5.61;100.00
40708;BME280;26392;42.696;23.350;2023-01-16T11:28:22;94624.78;;;5.72;100.00
40708;BME280;26392;42.696;23.350;2023-01-16T11:30:53;94629.59;;;5.70;100.00
40708;BME280;26392;42.696;23.350;2023-01-16T11:33:33;94619.97;;;5.74;100.00
40708;BME280;26392;42.696;23.350;2023-01-16T11:36:02;94625.03;;;5.99;100.00
40708;BME280;26392;42.696;23.350;2023-01-16T11:38:35;94623.00;;;6.23;100.00
40708;BME280;26392;42.696;23.350;2023-01-16T11:41:04;94615.56;;;6.31;100.00
40708;BME280;26392;42.696;23.350;2023-01-16T11:43:32;94604.06;;;6.40;100.00
40708;BME280;26392;42.696;23.350;2023-01-16T11:46:34;94590.53;;;6.57;100.00
40708;BME280;26392;42.696;23.350;2023-01-16T11:49:11;94591.53;;;6.51;100.00
40708;BME280;26392;42.696;23.350;2023-01-16T11:51:38;94593.09;;;6.64;100.00
40708;BME280;26392;42.696;23.350;2023-01-16T11:54:11;94592.06;;;6.87;100.00
40708;BME280;26392;42.696;23.350;2023-01-16T11:57:12;94575.25;;;7.07;100.00
40708;BME280;26392;42.696;23.350;2023-01-16T12:00:05;94572.94;;;7.15;100.00
40708;BME280;26392;42.696;23.350;2023-01-16T12:05:28;94560.34;;;6.65;100.00
40708;BME280;26392;42.696;23.350;2023-01-16T12:12:17;94561.75;;;6.90;100.00
40708;BME280;26392;42.696;23.350;2023-01-16T12:17:17;94542.63;;;6.97;100.00
40708;BME280;26392;42.696;23.350;2023-01-16T12:22:17;94548.91;;;6.80;100.00
40708;BME280;26392;42.696;23.350;2023-01-16T12:24:51;94539.22;;;6.84;100.00
40708;BME280;26392;42.696;23.350;2023-01-16T12:42:05;94506.81;;;7.38;100.00
40708;BME280;26392;42.696;23.350;2023-01-16T12:47:38;94495.00;;;7.23;100.00
40708;BME280;26392;42.696;23.350;2023-01-16T12:50:22;94496.34;;;6.98;100.00
40708;BME280;26392;42.696;23.350;2023-01-16T12:58:19;94487.47;;;6.81;100.00
40708;BME280;26392;42.696;23.350;2023-01-16T13:06:16;94469.13;;;6.66;100.00
40708;BME280;26392;42.696;23.350;2023-01-16T13:08:49;94461.88;;;6.71;100.00
40708;BME280;26392;42.696;23.350;2023-01-16T13:11:28;94458.00;;;6.84;100.00
40708;BME280;26392;42.696;23.350;2023-01-16T13:14:15;94437.66;;;6.82;100.00
40708;BME280;26392;42.696;23.350;2023-01-16T13:19:11;94451.88;;;6.94;100.00
40708;BME280;26392;42.696;23.350;2023-01-16T13:21:54;94436.34;;;6.84;100.00
40708;BME280;26392;42.696;23.350;2023-01-16T13:24:29;94431.34;;;6.76;100.00
40708;BME280;26392;42.696;23.350;2023-01-16T13:27:02;94434.44;;;6.63;100.00
40708;BME280;26392;42.696;23.350;2023-01-16T13:29:39;94435.38;;;6.52;100.00
40708;BME280;26392;42.696;23.350;2023-01-16T13:32:19;94425.19;;;6.37;100.00
40708;BME280;26392;42.696;23.350;2023-01-16T13:34:52;94440.97;;;6.23;100.00
40708;BME280;26392;42.696;23.350;2023-01-16T13:42:33;94429.91;;;6.08;100.00
40708;BME280;26392;42.696;23.350;2023-01-16T13:45:06;94422.28;;;5.88;100.00
40708;BME280;26392;42.696;23.350;2023-01-16T13:47:52;94428.47;;;5.83;100.00
40708;BME280;26392;42.696;23.350;2023-01-16T13:50:30;94423.06;;;5.83;100.00
40708;BME280;26392;42.696;23.350;2023-01-16T13:53:08;94435.00;;;5.87;100.00
40708;BME280;26392;42.696;23.350;2023-01-16T13:55:39;94420.50;;;5.76;100.00
40708;BME280;26392;42.696;23.350;2023-01-16T13:58:09;94401.09;;;5.63;100.00
40708;BME280;26392;42.696;23.350;2023-01-16T14:00:36;94403.66;;;5.52;100.00
40708;BME280;26392;42.696;23.350;2023-01-16T14:03:36;94405.44;;;5.30;100.00
40708;BME280;26392;42.696;23.350;2023-01-16T14:09:11;94409.66;;;5.09;100.00
40708;BME280;26392;42.696;23.350;2023-01-16T14:11:58;94405.53;;;5.35;100.00
40708;BME280;26392;42.696;23.350;2023-01-16T14:17:19;94415.75;;;5.33;100.00
40708;BME280;26392;42.696;23.350;2023-01-16T14:20:14;94410.81;;;4.84;100.00
40708;BME280;26392;42.696;23.350;2023-01-16T14:22:42;94431.31;;;4.68;100.00
40708;BME280;26392;42.696;23.350;2023-01-16T14:25:27;94426.56;;;4.87;100.00
40708;BME280;26392;42.696;23.350;2023-01-16T14:27:54;94441.41;;;4.61;100.00
40708;BME280;26392;42.696;23.350;2023-01-16T14:30:24;94433.81;;;4.58;100.00
40708;BME280;26392;42.696;23.350;2023-01-16T14:32:54;94427.34;;;4.59;100.00
40708;BME280;26392;42.696;23.350;2023-01-16T14:35:50;94430.28;;;4.58;100.00
40708;BME280;26392;42.696;23.350;2023-01-16T14:38:21;94430.13;;;4.36;100.00
40708;BME280;26392;42.696;23.350;2023-01-16T14:40:53;94419.56;;;4.34;100.00
40708;BME280;26392;42.696;23.350;2023-01-16T14:46:58;94411.13;;;4.31;100.00
40708;BME280;26392;42.696;23.350;2023-01-16T14:50:07;94407.38;;;4.32;100.00
40708;BME280;26392;42.696;23.350;2023-01-16T14:55:52;94409.88;;;4.10;100.00
40708;BME280;26392;42.696;23.350;2023-01-16T15:00:57;94420.53;;;4.16;100.00
40708;BME280;26392;42.696;23.350;2023-01-16T15:03:59;94416.81;;;4.17;100.00
40708;BME280;26392;42.696;23.350;2023-01-16T15:06:33;94406.69;;;4.24;100.00
40708;BME280;26392;42.696;23.350;2023-01-16T15:09:00;94389.91;;;4.22;100.00